Time;durP1;ratioP1;P1;durP2;ratioP2;P2;SDS_P1;SDS_P2;PMS_P1;PMS_P2;Temp;Humidity;BMP_temperature;BMP_pressure;BME280_temperature;BME280_humidity;BME280_pressure;Samples;Min_cycle;Max_cycle;Signal;HPM_P1;HPM_P2
2023/10/10 00:01:45;;;;;;;24.92;19.58;;;;;;;12.62;100.00;101908.09;5020725;28;20117;-67
2023/10/10 00:04:11;;;;;;;25.00;20.00;;;;;;;12.62;100.00;101913.31;5009622;28;20524;-67
2023/10/10 00:06:38;;;;;;;27.00;20.20;;;;;;;12.61;100.00;101914.09;5009195;28;20200;-67
2023/10/10 00:09:10;;;;;;;22.10;19.52;;;;;;;12.59;100.00;101911.44;5024353;28;20398;-67
2023/10/10 00:11:37;;;;;;;25.55;21.17;;;;;;;12.58;100.00;101911.41;5019866;28;20022;-67
2023/10/10 00:14:05;;;;;;;24.40;20.55;;;;;;;12.56;100.00;101902.63;5024975;28;20021;-67
2023/10/10 00:16:37;;;;;;;24.63;20.90;;;;;;;12.55;100.00;101911.28;5028180;28;20067;-66
2023/10/10 00:21:51;;;;;;;26.70;22.00;;;;;;;12.55;100.00;101916.47;5014941;28;20037;-67
2023/10/10 00:24:20;;;;;;;23.45;21.02;;;;;;;12.53;100.00;101916.41;5009240;28;20026;-67
2023/10/10 00:26:47;;;;;;;25.73;22.73;;;;;;;12.53;100.00;101918.13;5009160;28;20033;-67
2023/10/10 00:29:13;;;;;;;27.98;23.58;;;;;;;12.54;100.00;101912.97;5008470;28;20153;-67
2023/10/10 00:31:42;;;;;;;27.83;24.83;;;;;;;12.54;100.00;101912.13;5008933;28;20117;-67
2023/10/10 00:34:09;;;;;;;26.73;23.85;;;;;;;12.54;100.00;101904.31;5009139;28;20113;-67
2023/10/10 00:36:35;;;;;;;28.45;25.08;;;;;;;12.53;100.00;101902.53;5008733;28;20034;-67
2023/10/10 00:39:22;;;;;;;30.63;27.33;;;;;;;12.53;100.00;101905.13;5009566;28;20502;-67
2023/10/10 00:44:19;;;;;;;32.03;27.33;;;;;;;12.51;100.00;101904.16;5019761;28;20378;-66
2023/10/10 00:46:51;;;;;;;29.95;26.83;;;;;;;12.49;100.00;101898.91;5010167;28;20022;-66
2023/10/10 00:49:17;;;;;;;32.45;28.95;;;;;;;12.49;100.00;101897.22;5008566;28;20103;-67
2023/10/10 00:51:47;;;;;;;33.33;28.80;;;;;;;12.48;100.00;101892.81;5008655;28;20026;-67
2023/10/10 00:54:26;;;;;;;32.83;29.08;;;;;;;12.49;100.00;101894.59;5008724;28;20052;-66
2023/10/10 00:56:59;;;;;;;33.72;29.80;;;;;;;12.47;100.00;101892.75;4997181;28;20064;-67
2023/10/10 00:59:34;;;;;;;37.58;32.97;;;;;;;12.46;100.00;101893.59;5008886;28;20018;-67
2023/10/10 01:02:02;;;;;;;36.25;32.28;;;;;;;12.46;100.00;101889.28;5008676;28;20057;-67
2023/10/10 01:04:48;;;;;;;34.78;31.10;;;;;;;12.45;100.00;101895.28;5008317;28;20079;-66
2023/10/10 01:07:19;;;;;;;41.65;32.40;;;;;;;12.44;100.00;101890.03;5021515;28;20503;-67
2023/10/10 01:12:19;;;;;;;36.05;32.17;;;;;;;12.40;100.00;101870.81;5010389;28;20537;-66
2023/10/10 01:14:44;;;;;;;36.85;33.08;;;;;;;12.39;100.00;101871.66;5018692;28;20134;-67
2023/10/10 01:17:12;;;;;;;35.75;32.03;;;;;;;12.38;100.00;101877.66;5007914;28;20029;-66
2023/10/10 01:19:37;;;;;;;37.25;32.55;;;;;;;12.36;100.00;101879.31;5008203;28;20041;-66
2023/10/10 01:22:04;;;;;;;38.30;32.30;;;;;;;12.34;100.00;101871.47;5007579;28;20025;-66
2023/10/10 01:24:32;;;;;;;35.10;29.67;;;;;;;12.32;100.00;101862.69;5007647;28;20026;-67
2023/10/10 01:27:21;;;;;;;32.92;29.33;;;;;;;12.30;100.00;101864.38;5022920;28;20107;-67
2023/10/10 01:30:17;;;;;;;35.00;28.60;;;;;;;12.29;100.00;101862.59;5027510;28;20060;-68
2023/10/10 01:32:38;;;;;;;31.77;28.33;;;;;;;12.28;100.00;101870.31;5027768;28;20452;-67
2023/10/10 01:35:15;;;;;;;30.67;27.38;;;;;;;12.24;100.00;101865.00;5027013;28;20033;-67
2023/10/10 01:37:41;;;;;;;30.52;27.65;;;;;;;12.21;100.00;101857.09;5017428;28;20030;-67
2023/10/10 01:40:13;;;;;;;31.15;26.75;;;;;;;12.17;100.00;101857.78;5023945;28;20031;-66
2023/10/10 01:42:45;;;;;;;31.45;27.27;;;;;;;12.13;100.00;101855.88;5027043;28;20560;-65
2023/10/10 01:45:10;;;;;;;33.42;29.95;;;;;;;12.11;100.00;101841.91;5025868;28;20049;-66
2023/10/10 01:47:39;;;;;;;33.33;29.65;;;;;;;12.11;100.00;101847.13;5025647;28;20057;-67
2023/10/10 01:50:12;;;;;;;33.22;28.73;;;;;;;12.11;100.00;101841.91;5025859;28;20075;-67
2023/10/10 01:52:43;;;;;;;36.05;29.55;;;;;;;12.08;100.00;101833.97;5026913;28;20029;-67
2023/10/10 01:55:10;;;;;;;31.08;27.85;;;;;;;12.07;100.00;101832.22;5020627;28;20022;-67
2023/10/10 01:57:35;;;;;;;35.00;31.20;;;;;;;12.07;100.00;101835.66;5007646;28;20033;-67
2023/10/10 02:00:11;;;;;;;34.08;29.30;;;;;;;12.06;100.00;101828.72;5007639;28;20025;-67
2023/10/10 02:02:36;;;;;;;33.25;29.67;;;;;;;12.03;100.00;101822.50;5021240;28;20271;-67
2023/10/10 02:05:04;;;;;;;35.03;30.27;;;;;;;12.03;100.00;101825.09;5007401;28;20057;-67
2023/10/10 02:07:32;;;;;;;34.33;30.65;;;;;;;12.04;100.00;101819.06;5006594;28;20049;-66
2023/10/10 02:10:13;;;;;;;36.70;32.40;;;;;;;12.02;100.00;101816.41;5016657;28;20385;-67
2023/10/10 02:12:45;;;;;;;;;;;;;;;12.01;100.00;101814.66;5026632;28;20021;-67
2023/10/10 02:15:12;;;;;;;;;;;;;;;12.00;100.00;101818.94;5026525;28;19912;-66
2023/10/10 02:17:50;;;;;;;31.20;27.75;;;;;;;12.00;100.00;101818.94;5021105;28;19909;-66
2023/10/10 02:22:52;;;;;;;33.95;30.27;;;;;;;11.99;100.00;101811.09;5011985;28;20152;-67
2023/10/10 02:27:55;;;;;;;31.63;28.20;;;;;;;11.95;100.00;101810.09;5011588;28;20030;-66
2023/10/10 02:33:14;;;;;;;33.33;29.08;;;;;;;11.94;100.00;101802.22;5011543;28;19991;-67
2023/10/10 02:38:37;;;;;;;32.67;29.13;;;;;;;11.93;100.00;101796.13;5006573;28;20072;-67
2023/10/10 02:46:33;;;;;;;31.92;27.50;;;;;;;11.86;100.00;101794.09;5011963;28;20374;-67
2023/10/10 02:49:02;;;;;;;32.92;28.50;;;;;;;11.86;100.00;101794.09;5011958;28;20100;-67
2023/10/10 02:51:27;;;;;;;31.65;28.27;;;;;;;11.86;100.00;101800.19;5011682;28;20030;-67
2023/10/10 02:53:53;;;;;;;32.95;28.55;;;;;;;11.85;100.00;101797.53;5011142;28;20029;-67
2023/10/10 02:56:19;;;;;;;31.52;27.92;;;;;;;11.85;100.00;101787.16;5012185;28;20419;-67
2023/10/10 02:58:48;;;;;;;38.20;29.10;;;;;;;11.85;100.00;101792.34;5011587;28;20136;-67
2023/10/10 03:01:50;;;;;;;29.88;26.67;;;;;;;11.83;100.00;101789.69;5012235;28;20022;-67
2023/10/10 03:04:08;;;;;;;27.38;24.42;;;;;;;11.81;100.00;101790.44;5012022;28;20053;-66
2023/10/10 03:06:33;;;;;;;28.20;25.20;;;;;;;11.79;100.00;101786.88;5010920;28;20109;-67
2023/10/10 03:09:15;;;;;;;27.98;25.08;;;;;;;11.78;100.00;101786.00;5010588;28;20132;-67
2023/10/10 03:11:53;;;;;;;30.25;26.42;;;;;;;11.77;100.00;101790.31;5011601;28;20057;-66
2023/10/10 03:14:27;;;;;;;31.92;27.50;;;;;;;11.77;100.00;101787.72;5011971;28;20496;-67
2023/10/10 03:17:06;;;;;;;27.30;24.38;;;;;;;11.76;100.00;101787.66;5023692;28;20111;-66
2023/10/10 03:19:38;;;;;;;30.80;26.73;;;;;;;11.77;100.00;101792.00;5005647;28;20445;-66
2023/10/10 03:22:27;;;;;;;30.98;25.92;;;;;;;11.75;100.00;101786.75;5029225;28;20030;-67
2023/10/10 03:25:20;;;;;;;28.77;25.35;;;;;;;11.75;100.00;101789.34;5029912;28;20466;-66
2023/10/10 03:27:53;;;;;;;29.90;25.15;;;;;;;11.75;100.00;101796.25;5008339;28;20033;-66
2023/10/10 03:31:06;;;;;;;28.10;24.98;;;;;;;11.73;100.00;101798.78;5028903;28;20029;-67
2023/10/10 03:33:16;;;;;;;35.13;26.95;;;;;;;11.71;100.00;101790.03;5012806;28;20061;-67
2023/10/10 03:38:57;;;;;;;29.83;26.52;;;;;;;11.69;100.00;101796.00;5016545;28;20060;-67
2023/10/10 05:25:23;;;;;;;35.30;28.75;;;;;;;11.31;100.00;101737.31;5001364;28;20049;-67
2023/10/10 05:27:52;;;;;;;31.23;27.92;;;;;;;11.28;100.00;101731.97;5001238;28;20466;-66
2023/10/10 05:30:23;;;;;;;33.30;29.13;;;;;;;11.25;100.00;101732.75;5008152;28;20447;-66
2023/10/10 05:33:01;;;;;;;;;;;;;;;11.24;100.00;101730.94;5023551;28;20044;-66
2023/10/10 05:35:38;;;;;;;33.33;28.83;;;;;;;11.24;100.00;101730.09;5027469;28;20427;-67
2023/10/10 05:38:07;;;;;;;35.00;29.77;;;;;;;11.22;100.00;101730.03;5026081;28;20120;-67
2023/10/10 05:40:33;;;;;;;36.13;31.17;;;;;;;11.19;100.00;101719.50;5025793;28;20089;-66
2023/10/10 05:43:00;;;;;;;37.35;32.70;;;;;;;11.22;100.00;101722.25;5012246;28;20053;-66
2023/10/10 05:45:25;;;;;;;37.40;33.33;;;;;;;11.23;100.00;101716.22;5014055;28;20033;-66
2023/10/10 05:47:50;;;;;;;40.10;35.08;;;;;;;11.24;100.00;101720.56;5011022;28;20037;-66
2023/10/10 05:50:18;;;;;;;40.53;35.80;;;;;;;11.26;100.00;101718.94;5014217;28;20029;-67
2023/10/10 05:52:44;;;;;;;41.20;35.40;;;;;;;11.29;100.00;101715.59;5010621;28;20041;-68
2023/10/10 05:55:14;;;;;;;39.60;34.95;;;;;;;11.31;100.00;101721.75;5013614;28;20025;-67
2023/10/10 05:57:40;;;;;;;41.97;35.30;;;;;;;11.34;100.00;101723.56;5001811;28;20045;-67
2023/10/10 06:00:11;;;;;;;36.55;32.63;;;;;;;11.36;100.00;101724.53;5012490;28;20032;-66
2023/10/10 06:02:37;;;;;;;41.33;34.30;;;;;;;11.37;100.00;101732.38;5009984;28;20041;-67
2023/10/10 06:05:06;;;;;;;36.47;31.95;;;;;;;11.38;100.00;101723.78;5014576;28;20539;-66
2023/10/10 06:07:32;;;;;;;36.35;32.45;;;;;;;11.38;100.00;101718.59;5009976;28;20226;-67
2023/10/10 06:09:58;;;;;;;34.65;30.52;;;;;;;11.41;100.00;101725.59;5014131;28;20021;-66
2023/10/10 06:12:24;;;;;;;34.83;29.83;;;;;;;11.40;100.00;101721.25;5010254;28;20494;-67
2023/10/10 06:14:50;;;;;;;33.55;29.75;;;;;;;11.42;100.00;101724.81;5014585;28;20064;-67
2023/10/10 06:17:16;;;;;;;35.85;30.25;;;;;;;11.43;100.00;101721.38;5007000;28;20112;-67
2023/10/10 06:19:45;;;;;;;35.92;28.58;;;;;;;11.45;100.00;101719.75;5016366;28;20036;-66
2023/10/10 06:22:14;;;;;;;29.80;25.90;;;;;;;11.48;100.00;101718.97;5024090;28;20038;-67
2023/10/10 06:24:40;;;;;;;29.30;26.10;;;;;;;11.49;100.00;101721.66;5007611;28;20121;-67
2023/10/10 06:27:08;;;;;;;33.65;26.58;;;;;;;11.53;100.00;101717.47;5010446;28;20112;-67
2023/10/10 06:29:34;;;;;;;31.83;26.88;;;;;;;11.52;100.00;101716.59;5016941;28;20030;-67
2023/10/10 06:31:59;;;;;;;28.27;23.80;;;;;;;11.54;100.00;101719.25;5023947;28;20428;-66
2023/10/10 06:34:34;;;;;;;31.83;25.35;;;;;;;11.54;100.00;101714.03;5026804;28;20037;-67
2023/10/10 06:37:07;;;;;;;30.77;24.67;;;;;;;11.56;100.00;101711.50;5026579;28;20022;-67
2023/10/10 06:39:34;;;;;;;29.70;24.10;;;;;;;11.56;100.00;101720.19;5026739;28;20120;-67
2023/10/10 06:42:03;;;;;;;31.00;24.08;;;;;;;11.59;100.00;101711.63;5025683;28;20059;-66
2023/10/10 06:44:39;;;;;;;26.80;22.75;;;;;;;11.59;100.00;101709.94;5026223;28;20451;-66
2023/10/10 06:47:08;;;;;;;30.38;21.95;;;;;;;11.62;100.00;101706.59;5003900;28;20084;-67
2023/10/10 06:49:43;;;;;;;28.05;21.90;;;;;;;11.63;100.00;101706.66;5024157;28;20111;-66
2023/10/10 06:52:18;;;;;;;26.90;21.35;;;;;;;11.68;100.00;101716.31;5026483;28;20041;-66
2023/10/10 06:54:56;;;;;;;24.65;21.60;;;;;;;11.71;100.00;101714.75;5025095;28;20132;-67
2023/10/10 06:57:44;;;;;;;26.50;22.13;;;;;;;11.75;100.00;101714.06;5025424;28;20044;-67
2023/10/10 07:02:47;;;;;;;26.30;21.13;;;;;;;11.84;100.00;101710.03;5024491;28;20030;-66
2023/10/10 07:05:15;;;;;;;23.60;20.42;;;;;;;11.86;100.00;101700.59;5025017;28;20025;-67
2023/10/10 07:07:44;;;;;;;26.95;22.15;;;;;;;11.89;100.00;101712.00;5025789;28;20468;-67
2023/10/10 07:10:09;;;;;;;23.05;19.45;;;;;;;11.95;100.00;101711.38;5027574;28;20040;-67
2023/10/10 07:12:38;;;;;;;24.83;22.00;;;;;;;12.00;100.00;101709.84;5027675;28;20112;-67
2023/10/10 07:15:06;;;;;;;25.35;21.27;;;;;;;12.07;100.00;101707.50;5029458;28;20041;-67
2023/10/10 07:17:32;;;;;;;25.27;21.35;;;;;;;12.10;100.00;101705.97;5029228;28;20034;-66
2023/10/10 07:22:27;;;;;;;22.75;19.63;;;;;;;12.21;100.00;101702.88;5029717;28;20033;-67
2023/10/10 07:25:06;;;;;;;32.17;21.85;;;;;;;12.29;100.00;101700.56;5030346;28;20033;-67
2023/10/10 07:27:32;;;;;;;26.67;20.73;;;;;;;12.35;100.00;101700.81;5017317;28;20029;-67
2023/10/10 07:29:57;;;;;;;25.95;21.52;;;;;;;12.41;100.00;101705.38;5029028;28;20022;-67
2023/10/10 07:32:29;;;;;;;25.67;21.75;;;;;;;12.47;100.00;101701.28;5030129;28;20614;-67
2023/10/10 07:34:55;;;;;;;26.58;20.88;;;;;;;12.54;100.00;101701.53;5027710;28;20021;-67
2023/10/10 07:37:23;;;;;;;24.27;19.90;;;;;;;12.58;100.00;101704.28;5028947;28;20036;-67
2023/10/10 07:39:55;;;;;;;27.98;20.27;;;;;;;12.63;100.00;101701.00;5028196;28;20017;-67
2023/10/10 07:42:27;;;;;;;25.83;19.92;;;;;;;12.67;100.00;101702.84;5029459;28;20042;-67
2023/10/10 07:44:54;;;;;;;23.17;19.77;;;;;;;12.72;100.00;101691.78;5028821;28;20036;-66
2023/10/10 07:47:25;;;;;;;20.48;18.02;;;;;;;12.80;100.00;101694.69;5030022;28;20321;-67
2023/10/10 07:49:59;;;;;;;25.85;18.55;;;;;;;12.84;100.00;101696.56;5028957;28;20120;-67
2023/10/10 07:52:25;;;;;;;22.13;18.83;;;;;;;12.90;100.00;101695.03;5029255;28;20140;-67
2023/10/10 07:54:51;;;;;;;22.38;17.98;;;;;;;12.93;100.00;101696.00;5028316;28;20549;-66
2023/10/10 07:57:26;;;;;;;22.40;18.05;;;;;;;13.00;100.00;101696.22;5029709;28;20017;-67
2023/10/10 07:59:57;;;;;;;21.52;17.40;;;;;;;13.07;100.00;101693.91;5029010;28;20485;-67
2023/10/10 08:04:56;;;;;;;19.90;17.63;;;;;;;13.26;100.00;101698.88;5028517;28;20033;-67
2023/10/10 08:07:26;;;;;;;23.02;17.90;;;;;;;13.41;100.00;101698.50;5027294;28;20025;-67
2023/10/10 08:10:13;;;;;;;18.00;15.68;;;;;;;13.55;100.00;101702.50;5028692;28;20529;-67
2023/10/10 08:12:37;;;;;;;17.27;15.40;;;;;;;13.72;100.00;101703.88;5026567;28;20040;-67
2023/10/10 08:15:18;;;;;;;17.42;15.00;;;;;;;13.80;100.00;101697.19;5028045;28;20102;-66
2023/10/10 08:17:51;;;;;;;;;;;;;;;13.99;100.00;101703.00;5022443;28;20030;-67
2023/10/10 08:23:04;;;;;;;20.25;14.63;;;;;;;14.25;100.00;101695.09;5009576;28;20033;-67
2023/10/10 08:25:30;;;;;;;18.20;14.27;;;;;;;14.37;100.00;101705.88;5009434;28;20021;-67
2023/10/10 08:27:58;;;;;;;17.63;13.63;;;;;;;14.43;100.00;101701.72;5009719;28;20164;-67
2023/10/10 08:30:25;;;;;;;18.08;13.77;;;;;;;14.52;100.00;101699.38;5008618;28;20026;-66
2023/10/10 08:32:58;;;;;;;18.20;13.32;;;;;;;14.61;100.00;101704.84;5009988;28;20576;-67
2023/10/10 08:35:27;;;;;;;16.90;14.18;;;;;;;14.67;100.00;101704.16;5008819;28;20028;-67
2023/10/10 08:37:52;;;;;;;18.20;14.00;;;;;;;14.70;100.00;101700.72;5008896;28;20067;-67
2023/10/10 08:40:21;;;;;;;17.38;13.80;;;;;;;14.73;100.00;101693.88;5009022;28;20335;-67
2023/10/10 08:42:49;;;;;;;17.92;14.60;;;;;;;14.79;100.00;101701.00;5009574;28;20087;-67
2023/10/10 08:45:22;;;;;;;17.13;13.77;;;;;;;14.91;100.00;101699.63;5009026;28;20518;-66
2023/10/10 08:47:58;;;;;;;14.85;12.45;;;;;;;15.04;100.00;101706.94;5008643;28;20045;-67
2023/10/10 08:50:24;;;;;;;17.35;12.77;;;;;;;15.17;100.00;101713.38;5009647;28;20026;-67
2023/10/10 08:52:50;;;;;;;17.70;13.80;;;;;;;15.30;100.00;101712.00;5008838;28;20025;-67
2023/10/10 08:55:26;;;;;;;17.60;12.73;;;;;;;15.40;100.00;101710.47;5008664;28;20506;-67
2023/10/10 08:57:55;;;;;;;15.68;11.35;;;;;;;15.50;100.00;101716.84;5009038;28;20032;-67
2023/10/10 09:00:27;;;;;;;17.05;12.23;;;;;;;15.55;100.00;101717.84;5009040;28;20026;-67
2023/10/10 09:02:55;;;;;;;15.20;12.20;;;;;;;15.59;100.00;101716.19;5009403;28;20057;-67
2023/10/10 09:05:23;;;;;;;17.45;12.18;;;;;;;15.66;100.00;101709.38;5009242;28;20040;-67
2023/10/10 09:07:48;;;;;;;14.77;11.25;;;;;;;15.68;100.00;101707.69;5008921;28;20022;-67
2023/10/10 09:10:14;;;;;;;17.58;11.23;;;;;;;15.71;100.00;101705.16;5008545;28;20188;-67
2023/10/10 09:12:56;;;;;;;14.05;10.60;;;;;;;15.76;100.00;101713.13;5008564;28;20014;-67
2023/10/10 09:15:22;;;;;;;15.77;10.43;;;;;;;15.77;100.00;101707.94;5008448;28;20553;-67
2023/10/10 09:17:48;;;;;;;16.55;11.32;;;;;;;15.78;100.00;101712.28;5027722;28;20029;-68
2023/10/10 09:20:28;;;;;;;13.40;10.40;;;;;;;15.85;100.00;101711.59;5027363;28;20029;-66
2023/10/10 09:23:11;;;;;;;11.07;9.65;;;;;;;15.87;100.00;101703.78;5004937;28;20030;-67
2023/10/10 09:25:48;;;;;;;12.98;10.30;;;;;;;15.84;100.00;101709.84;5027067;28;20024;-67
2023/10/10 09:28:16;;;;;;;16.92;10.82;;;;;;;15.87;100.00;101700.28;5027476;28;20025;-67
2023/10/10 09:30:45;;;;;;;14.15;10.90;;;;;;;15.91;100.00;101710.88;5025989;28;20385;-67
2023/10/10 09:33:27;;;;;;;12.95;9.63;;;;;;;15.94;100.00;101705.69;5014383;28;20063;-67
2023/10/10 09:36:15;;;;;;;10.95;8.70;;;;;;;15.99;100.00;101712.78;5007599;28;20083;-67
2023/10/10 09:38:53;;;;;;;11.75;9.38;;;;;;;16.02;100.00;101708.53;5008620;28;20511;-67
2023/10/10 09:49:46;;;;;;;11.90;9.13;;;;;;;16.13;100.00;101714.00;5009083;28;20037;-67
2023/10/10 09:58:15;;;;;;;15.18;10.30;;;;;;;16.22;100.00;101725.53;5008259;28;20394;-67
2023/10/10 10:09:31;;;;;;;11.27;9.07;;;;;;;16.40;100.00;101702.41;5008297;28;20025;-68
2023/10/10 10:12:30;;;;;;;15.23;10.20;;;;;;;16.49;100.00;101703.44;5008310;28;20041;-67
2023/10/10 10:15:16;;;;;;;12.15;9.73;;;;;;;16.55;100.00;101700.94;5007921;28;20038;-67
2023/10/10 10:18:19;;;;;;;10.43;8.35;;;;;;;16.65;100.00;101709.88;5020156;28;20088;-68
2023/10/10 10:20:47;;;;;;;11.27;8.52;;;;;;;16.73;100.00;101705.66;5024466;28;20025;-68
2023/10/10 10:23:33;;;;;;;8.80;7.50;;;;;;;16.79;100.00;101699.69;5027107;28;20469;-68
2023/10/10 10:26:04;;;;;;;13.63;9.10;;;;;;;16.88;100.00;101701.59;5002402;28;20075;-68
2023/10/10 10:28:35;;;;;;;13.57;10.07;;;;;;;16.98;100.00;101700.91;5025648;28;20026;-67
2023/10/10 10:31:16;;;;;;;12.35;9.43;;;;;;;17.08;100.00;101694.13;5026660;28;20038;-67
2023/10/10 10:34:24;;;;;;;16.35;10.95;;;;;;;17.21;100.00;101700.50;5026947;28;20214;-67
2023/10/10 10:37:03;;;;;;;10.80;8.70;;;;;;;17.32;100.00;101703.31;5024869;28;20025;-67
2023/10/10 10:39:34;;;;;;;13.85;9.77;;;;;;;17.39;100.00;101699.97;5026623;28;20116;-67
2023/10/10 10:42:01;;;;;;;14.27;9.98;;;;;;;17.44;100.00;101702.66;5026169;28;20064;-68
2023/10/10 10:44:58;;;;;;;12.10;9.32;;;;;;;17.49;100.00;101694.84;5030594;28;20108;-67
2023/10/10 10:47:34;;;;;;;13.57;8.52;;;;;;;17.56;100.00;101695.84;5012511;28;20047;-68
2023/10/10 10:50:02;;;;;;;11.32;8.07;;;;;;;17.63;100.00;101693.34;5028926;28;20033;-67
2023/10/10 10:52:56;;;;;;;14.50;9.05;;;;;;;17.75;100.00;101691.78;5029885;28;20432;-67
2023/10/10 10:55:27;;;;;;;14.23;8.55;;;;;;;17.86;100.00;101694.56;5010250;28;20389;-68
2023/10/10 10:58:05;;;;;;;;;;;;;;;17.97;100.00;101692.97;5029968;28;20013;-68
2023/10/10 11:00:56;;;;;;;12.15;8.25;;;;;;;18.12;100.00;101691.44;5030023;28;19963;-68
2023/10/10 11:03:36;;;;;;;14.90;9.63;;;;;;;18.27;100.00;101690.81;5029326;28;20083;-68
2023/10/10 11:06:06;;;;;;;12.02;8.52;;;;;;;18.44;100.00;101693.63;5029375;28;20055;-68
2023/10/10 11:13:55;;;;;;;10.25;7.78;;;;;;;18.95;100.00;101677.59;5029824;28;20090;-68
2023/10/10 11:16:24;;;;;;;8.98;7.57;;;;;;;19.14;100.00;101679.56;5029609;28;20104;-68
2023/10/10 11:18:57;;;;;;;10.82;7.13;;;;;;;19.29;100.00;101676.19;5027748;28;20033;-67
2023/10/10 11:21:28;;;;;;;9.80;7.70;;;;;;;19.46;100.00;101670.19;5020129;28;20025;-68
2023/10/10 11:23:57;;;;;;;9.48;6.78;;;;;;;19.61;100.00;101665.06;5030273;28;20484;-68
2023/10/10 11:26:22;;;;;;;9.55;6.65;;;;;;;19.77;100.00;101665.19;5019728;28;20436;-68
2023/10/10 11:28:48;;;;;;;11.30;7.70;;;;;;;19.84;97.47;101656.44;5027023;28;20021;-67
2023/10/10 11:31:16;;;;;;;10.90;8.60;;;;;;;19.95;96.79;101653.00;5030073;28;20466;-68
2023/10/10 11:34:09;;;;;;;8.77;7.05;;;;;;;20.09;98.16;101656.63;5029669;28;20441;-69
2023/10/10 11:36:38;;;;;;;10.02;7.60;;;;;;;20.13;95.16;101655.75;5026765;28;20064;-69
2023/10/10 11:39:46;;;;;;;12.13;7.25;;;;;;;20.25;96.14;101659.31;5010234;28;20032;-68
2023/10/10 11:41:55;;;;;;;11.68;6.82;;;;;;;20.32;94.36;101657.59;5009402;28;20129;-68
2023/10/10 11:44:21;;;;;;;13.02;7.90;;;;;;;20.38;93.07;101658.50;5009295;28;20128;-67
2023/10/10 11:46:49;;;;;;;9.10;6.38;;;;;;;20.54;94.66;101653.31;5010900;28;20026;-68
2023/10/10 11:49:15;;;;;;;10.40;7.50;;;;;;;20.64;92.65;101644.56;5010812;28;20044;-68
2023/10/10 11:51:42;;;;;;;11.40;6.43;;;;;;;20.82;93.41;101652.47;5012383;28;20056;-68
2023/10/10 11:54:07;;;;;;;10.73;6.50;;;;;;;20.85;92.43;101642.81;5011412;28;20417;-68
2023/10/10 11:56:34;;;;;;;9.80;6.97;;;;;;;20.88;90.01;101640.19;5012601;28;20180;-67
2023/10/10 11:59:13;;;;;;;9.13;6.45;;;;;;;21.08;93.55;101644.63;5011577;28;20047;-68
2023/10/10 12:01:51;;;;;;;10.23;6.30;;;;;;;21.24;93.53;101628.84;5010189;28;20050;-68
2023/10/10 12:04:21;;;;;;;8.35;6.22;;;;;;;21.28;89.41;101635.84;5010914;28;20024;-68
2023/10/10 12:06:47;;;;;;;12.10;6.38;;;;;;;21.33;87.98;101634.13;5010124;28;20446;-68
2023/10/10 12:09:19;;;;;;;10.02;6.50;;;;;;;21.40;87.50;101623.56;5011022;28;20084;-68
2023/10/10 12:11:44;;;;;;;10.23;6.40;;;;;;;21.43;86.03;101634.09;5010949;28;20048;-68
2023/10/10 12:14:12;;;;;;;10.50;6.28;;;;;;;21.49;86.54;101628.81;5011433;28;20029;-68
2023/10/10 12:16:37;;;;;;;10.02;6.15;;;;;;;21.54;86.81;101631.44;5021420;28;20107;-69
2023/10/10 12:19:05;;;;;;;6.97;5.38;;;;;;;21.62;89.46;101634.06;5028321;28;20064;-68
2023/10/10 12:21:31;;;;;;;7.70;6.00;;;;;;;21.55;85.73;101634.06;5029119;28;20333;-67
2023/10/10 12:23:57;;;;;;;9.43;6.45;;;;;;;21.59;85.41;101629.69;5028606;28;20025;-69
2023/10/10 12:26:23;;;;;;;11.38;6.80;;;;;;;21.58;83.67;101628.81;5028885;28;20026;-68
2023/10/10 12:28:52;;;;;;;8.82;6.25;;;;;;;21.56;83.22;101617.38;5027175;28;20025;-68
2023/10/10 12:31:18;;;;;;;9.35;6.25;;;;;;;21.59;86.76;101614.75;5028832;28;20075;-68
2023/10/10 12:33:48;;;;;;;8.75;5.55;;;;;;;21.62;90.21;101607.72;5028190;28;20100;-68
2023/10/10 12:36:17;;;;;;;10.20;6.13;;;;;;;21.55;86.60;101615.63;5028265;28;20464;-68
2023/10/10 12:38:43;;;;;;;8.80;5.55;;;;;;;21.52;86.20;101607.72;5027473;28;20013;-68
2023/10/10 12:41:15;;;;;;;7.88;5.80;;;;;;;21.57;88.36;101598.03;5027967;28;20587;-68
2023/10/10 12:43:40;;;;;;;8.90;5.57;;;;;;;21.55;86.47;101599.81;5026965;28;20275;-68
2023/10/10 12:46:09;;;;;;;9.90;6.00;;;;;;;21.57;85.35;101594.53;5027911;28;20462;-68
2023/10/10 12:48:39;;;;;;;8.10;5.93;;;;;;;21.51;82.32;101595.44;5027621;28;20029;-69
2023/10/10 12:51:09;;;;;;;8.02;5.68;;;;;;;21.51;81.52;101598.06;5026977;28;20033;-68
2023/10/10 12:53:39;;;;;;;6.63;5.15;;;;;;;21.50;85.22;101585.75;5027565;28;20026;-69
2023/10/10 12:56:05;;;;;;;7.95;5.93;;;;;;;21.46;78.33;101594.56;5026057;28;20036;-68
2023/10/10 12:58:32;;;;;;;6.93;4.68;;;;;;;21.44;76.31;101601.59;5027207;28;20312;-67
2023/10/10 13:00:58;;;;;;;7.43;5.22;;;;;;;21.42;77.61;101595.44;5026396;28;20047;-69
2023/10/10 13:03:30;;;;;;;8.82;5.03;;;;;;;21.40;76.80;101587.53;5027992;28;20018;-69
2023/10/10 13:06:00;;;;;;;8.00;4.75;;;;;;;21.40;75.75;101591.94;5025432;28;20030;-68
2023/10/10 13:08:38;;;;;;;6.28;4.43;;;;;;;21.39;78.95;101588.41;5027893;28;20044;-69
2023/10/10 13:11:14;;;;;;;6.63;4.93;;;;;;;21.35;82.67;101584.91;5026906;28;20033;-69
2023/10/10 13:13:45;;;;;;;9.18;4.82;;;;;;;21.30;85.13;101586.66;5027832;28;20560;-68
2023/10/10 13:16:25;;;;;;;9.88;5.30;;;;;;;21.25;76.08;101583.16;5002745;28;20030;-68
2023/10/10 13:18:52;;;;;;;6.43;4.50;;;;;;;21.27;78.37;101593.69;5026470;28;20034;-68
2023/10/10 13:21:20;;;;;;;8.85;4.38;;;;;;;21.25;76.04;101593.69;5027326;28;20318;-68
2023/10/10 13:23:47;;;;;;;8.38;4.45;;;;;;;21.30;78.25;101594.56;5026608;28;20021;-69
2023/10/10 13:26:13;;;;;;;8.45;4.72;;;;;;;21.38;75.08;101605.13;5027279;28;20087;-68
2023/10/10 13:28:44;;;;;;;8.57;4.40;;;;;;;21.42;75.09;101591.06;5025798;28;20034;-68
2023/10/10 13:31:13;;;;;;;10.35;4.47;;;;;;;21.51;73.65;101590.16;5027319;28;20083;-68
2023/10/10 13:33:39;;;;;;;8.52;4.68;;;;;;;21.54;71.49;101586.63;5026596;28;20021;-68
2023/10/10 13:36:05;;;;;;;10.43;4.95;;;;;;;21.53;73.32;101585.78;5027035;28;20018;-68
2023/10/10 13:38:31;;;;;;;8.38;4.30;;;;;;;21.54;73.70;101584.00;5026902;28;20109;-68
2023/10/10 13:41:01;;;;;;;7.63;4.53;;;;;;;21.54;74.00;101589.25;5026739;28;20433;-69
2023/10/10 13:43:26;;;;;;;9.05;4.88;;;;;;;21.52;74.77;101597.19;5027358;28;20032;-69
2023/10/10 13:45:52;;;;;;;5.95;4.25;;;;;;;21.52;73.57;101584.00;5028319;28;20470;-69
2023/10/10 13:48:23;;;;;;;9.27;4.28;;;;;;;21.53;75.38;101583.13;5013762;28;20379;-68
2023/10/10 13:50:51;;;;;;;9.35;4.68;;;;;;;21.52;75.20;101584.00;5027046;28;20029;-68
2023/10/10 13:53:17;;;;;;;8.73;4.72;;;;;;;21.51;76.14;101578.72;5026554;28;20025;-68
2023/10/10 13:55:44;;;;;;;8.65;3.95;;;;;;;21.48;76.46;101582.25;5027090;28;20421;-69
2023/10/10 13:58:12;;;;;;;7.95;4.40;;;;;;;21.45;77.65;101577.88;5026050;28;20462;-68
2023/10/10 14:00:39;;;;;;;9.95;4.75;;;;;;;21.43;77.44;101582.25;5025681;28;20444;-69
2023/10/10 14:03:05;;;;;;;8.20;4.20;;;;;;;21.39;77.47;101580.50;5025216;28;20311;-68
2023/10/10 14:05:35;;;;;;;6.32;4.22;;;;;;;21.37;77.22;101568.22;5026808;28;20064;-68
2023/10/10 14:08:07;;;;;;;7.90;4.50;;;;;;;21.33;76.54;101565.59;5026359;28;20577;-68
2023/10/10 14:10:40;;;;;;;8.15;4.32;;;;;;;21.31;77.04;101564.72;5026599;28;20830;-68
2023/10/10 14:13:19;;;;;;;7.45;4.38;;;;;;;21.28;79.06;101558.56;5003490;28;20128;-69
2023/10/10 14:16:00;;;;;;;8.32;4.20;;;;;;;21.25;79.38;101564.72;5025992;28;20021;-68
2023/10/10 14:18:43;;;;;;;8.82;3.90;;;;;;;21.25;79.28;101554.16;5027524;28;20029;-69